Time;durP1;ratioP1;P1;durP2;ratioP2;P2;SDS_P1;SDS_P2;PMS_P1;PMS_P2;Temp;Humidity;BMP_temperature;BMP_pressure;BME280_temperature;BME280_humidity;BME280_pressure;Samples;Min_cycle;Max_cycle;Signal;HPM_P1;HPM_P2
2021/07/22 00:04:38;;;;;;;6.60;6.00;;;22.30;40.10;;;;;;4741605;30;20947;-81
2021/07/22 00:08:14;;;;;;;6.90;6.30;;;22.30;40.10;;;;;;4743067;30;20813;-81
2021/07/22 00:22:15;;;;;;;5.47;4.97;;;22.30;40.10;;;;;;4735449;30;20436;-80
2021/07/22 00:32:33;;;;;;;6.47;5.87;;;22.30;40.20;;;;;;4736875;30;20899;-81
2021/07/22 00:42:52;;;;;;;5.33;4.93;;;22.20;40.10;;;;;;4800187;29;20445;-81
2021/07/22 00:46:25;;;;;;;6.20;5.80;;;22.20;40.10;;;;;;4736793;30;20907;-80
2021/07/22 00:50:01;;;;;;;6.17;5.70;;;22.20;40.10;;;;;;4719798;30;20534;-80
2021/07/22 00:56:39;;;;;;;6.63;6.13;;;22.20;40.10;;;;;;4702513;30;20892;-80
2021/07/22 01:00:02;;;;;;;6.47;5.97;;;22.20;40.10;;;;;;4684650;30;21074;-81
2021/07/22 01:10:44;;;;;;;5.00;4.70;;;22.20;40.10;;;;;;4678683;30;20501;-81
2021/07/22 01:17:39;;;;;;;5.50;5.10;;;22.20;40.10;;;;;;4684905;30;20554;-80
2021/07/22 01:21:05;;;;;;;5.80;5.40;;;22.20;40.10;;;;;;4683950;30;20863;-81
2021/07/22 01:24:51;;;;;;;;;;;;;;;;;;;;;
2021/07/22 01:35:03;;;;;;;6.00;5.57;;;22.20;40.20;;;;;;4648874;30;20465;-81
2021/07/22 01:39:02;;;;;;;5.70;5.30;;;22.20;40.20;;;;;;4668186;30;20454;-81
2021/07/22 01:42:15;;;;;;;5.60;5.20;;;22.20;40.20;;;;;;4710297;30;20455;-80
2021/07/22 01:45:46;;;;;;;7.43;6.90;;;22.20;40.20;;;;;;4706067;30;20474;-81
2021/07/22 01:49:00;;;;;;;5.17;4.83;;;22.20;40.20;;;;;;4701171;30;20563;-81
2021/07/22 01:51:26;;;;;;;6.10;5.70;;;22.20;40.20;;;;;;4730145;30;20536;-81
2021/07/22 01:53:52;;;;;;;5.50;5.10;;;22.20;40.20;;;;;;4749462;29;20442;-80
2021/07/22 01:56:17;;;;;;;5.60;5.20;;;22.20;40.30;;;;;;4808503;29;20458;-80
2021/07/22 01:58:43;;;;;;;5.90;4.77;;;22.20;40.20;;;;;;4809391;29;20197;-80
2021/07/22 02:01:08;;;;;;;5.87;5.47;;;22.20;40.30;;;;;;4807210;29;20298;-80
2021/07/22 02:03:34;;;;;;;5.07;4.77;;;22.20;40.20;;;;;;4807280;29;20188;-80
2021/07/22 02:06:06;;;;;;;4.80;4.50;;;22.20;40.20;;;;;;4807975;29;20193;-80
2021/07/22 02:08:32;;;;;;;6.07;5.67;;;22.20;40.20;;;;;;4808039;29;20200;-80
2021/07/22 02:10:57;;;;;;;5.50;5.10;;;22.20;40.20;;;;;;4808197;29;20419;-81
2021/07/22 02:13:25;;;;;;;5.93;5.53;;;22.10;40.20;;;;;;4808342;29;20928;-80
2021/07/22 02:15:51;;;;;;;5.70;5.30;;;22.10;40.20;;;;;;4807517;29;20184;-80
2021/07/22 02:18:21;;;;;;;6.00;5.50;;;22.10;40.20;;;;;;4807904;29;20435;-80
2021/07/22 02:20:47;;;;;;;5.30;5.00;;;22.20;40.20;;;;;;4806641;29;20687;-80
2021/07/22 02:23:12;;;;;;;4.90;4.60;;;22.20;40.30;;;;;;4807715;29;20414;-81
2021/07/22 02:25:38;;;;;;;5.43;5.13;;;22.20;40.30;;;;;;4806573;29;20661;-80
2021/07/22 02:28:04;;;;;;;4.83;4.53;;;22.20;40.30;;;;;;4806982;29;20210;-80
2021/07/22 02:30:30;;;;;;;5.33;4.93;;;22.20;40.30;;;;;;4806928;29;20196;-80
2021/07/22 02:32:56;;;;;;;5.60;5.10;;;22.20;40.20;;;;;;4805680;29;20557;-80
2021/07/22 02:35:21;;;;;;;5.30;4.90;;;22.20;40.30;;;;;;4806948;29;20652;-80
2021/07/22 02:37:47;;;;;;;5.37;5.00;;;22.10;40.20;;;;;;4805218;29;20209;-81
2021/07/22 02:40:13;;;;;;;5.43;5.03;;;22.10;40.20;;;;;;4806620;29;20177;-80
2021/07/22 02:42:39;;;;;;;5.30;4.90;;;22.20;40.30;;;;;;4806565;29;20177;-80
2021/07/22 02:45:05;;;;;;;5.00;4.70;;;22.20;40.30;;;;;;4805125;29;20426;-81
2021/07/22 02:47:31;;;;;;;5.40;5.03;;;22.20;40.30;;;;;;4806738;29;20621;-80
2021/07/22 02:49:58;;;;;;;5.27;4.90;;;22.10;40.30;;;;;;4807870;29;20462;-81
2021/07/22 02:52:23;;;;;;;5.80;5.40;;;22.20;40.30;;;;;;4807165;29;20212;-80
2021/07/22 02:54:49;;;;;;;4.80;4.50;;;22.10;40.30;;;;;;4808650;29;20422;-81
2021/07/22 02:57:15;;;;;;;5.50;5.20;;;22.10;40.20;;;;;;4808064;29;20176;-80
2021/07/22 02:59:40;;;;;;;5.43;5.13;;;22.10;40.20;;;;;;4807084;29;20205;-80
2021/07/22 03:02:06;;;;;;;5.23;4.93;;;22.10;40.30;;;;;;4807730;29;20184;-81
2021/07/22 03:04:32;;;;;;;5.40;5.00;;;22.10;40.20;;;;;;4807708;29;20199;-80
2021/07/22 03:06:57;;;;;;;5.20;4.90;;;22.10;40.30;;;;;;4806720;29;20185;-81
2021/07/22 03:09:23;;;;;;;5.30;4.90;;;22.20;40.40;;;;;;4808364;29;20522;-80
2021/07/22 03:11:49;;;;;;;5.50;5.03;;;22.10;40.30;;;;;;4806898;29;20208;-81
2021/07/22 03:14:14;;;;;;;5.33;4.97;;;22.20;40.40;;;;;;4806667;29;20208;-80
2021/07/22 03:16:40;;;;;;;5.17;4.87;;;22.10;40.30;;;;;;4807505;29;20188;-81
2021/07/22 03:19:05;;;;;;;4.60;4.30;;;22.10;40.30;;;;;;4806983;29;20341;-80
2021/07/22 03:21:31;;;;;;;4.43;4.17;;;22.10;40.30;;;;;;4806734;29;20611;-80
2021/07/22 03:23:56;;;;;;;5.53;5.20;;;22.10;41.00;;;;;;4808077;29;20673;-80
2021/07/22 03:26:22;;;;;;;4.63;4.33;;;22.10;40.30;;;;;;4807703;29;20192;-81
2021/07/22 03:28:47;;;;;;;5.10;4.70;;;22.10;40.30;;;;;;4807546;29;20205;-80
2021/07/22 03:31:13;;;;;;;4.83;4.53;;;22.10;40.30;;;;;;4806385;29;20212;-80
2021/07/22 03:33:41;;;;;;;5.10;4.80;;;22.10;40.30;;;;;;4806540;29;20177;-81
2021/07/22 03:36:07;;;;;;;5.13;4.73;;;22.10;40.30;;;;;;4807099;29;20184;-81
2021/07/22 03:38:33;;;;;;;4.67;4.47;;;22.10;40.30;;;;;;4806548;29;20449;-81
2021/07/22 03:40:58;;;;;;;4.83;4.53;;;22.10;40.30;;;;;;4807447;29;20233;-81
2021/07/22 03:43:24;;;;;;;4.90;4.60;;;22.10;40.30;;;;;;4806514;29;20180;-80
2021/07/22 03:45:58;;;;;;;5.63;5.30;;;22.10;40.30;;;;;;4807644;29;20188;-80
2021/07/22 03:48:24;;;;;;;5.10;4.73;;;22.10;40.40;;;;;;4808622;29;20204;-80
2021/07/22 03:50:50;;;;;;;5.70;5.30;;;22.10;40.40;;;;;;4808550;29;20906;-80
2021/07/22 03:53:16;;;;;;;5.50;5.10;;;22.10;40.40;;;;;;4807706;29;20280;-80
2021/07/22 03:55:42;;;;;;;5.37;5.07;;;22.10;40.40;;;;;;4806898;29;20611;-80
2021/07/22 03:58:07;;;;;;;4.87;4.57;;;22.10;40.40;;;;;;4807262;29;20453;-80
2021/07/22 04:00:33;;;;;;;5.00;4.60;;;22.10;40.40;;;;;;4806370;29;20214;-81
2021/07/22 04:03:00;;;;;;;5.60;5.20;;;22.10;40.40;;;;;;4806383;29;20723;-81
2021/07/22 04:05:27;;;;;;;5.03;4.73;;;22.10;40.40;;;;;;4807515;29;20283;-80
2021/07/22 04:07:59;;;;;;;5.20;4.90;;;22.10;40.40;;;;;;4806438;29;20474;-80
2021/07/22 04:10:26;;;;;;;4.97;4.67;;;22.10;40.40;;;;;;4807892;29;20505;-80
2021/07/22 04:13:03;;;;;;;4.93;4.63;;;22.10;40.40;;;;;;4806838;29;20466;-80
2021/07/22 04:15:29;;;;;;;5.13;4.73;;;22.10;40.40;;;;;;4807608;29;20470;-80
2021/07/22 04:17:56;;;;;;;5.07;4.83;;;22.10;40.40;;;;;;4806187;29;20442;-80
2021/07/22 04:20:23;;;;;;;5.30;5.00;;;22.10;40.40;;;;;;4805802;29;20441;-82
2021/07/22 04:22:50;;;;;;;5.77;5.47;;;22.10;41.20;;;;;;4807592;29;20437;-81
2021/07/22 04:25:15;;;;;;;4.97;4.67;;;22.10;40.50;;;;;;4806900;29;20958;-80
2021/07/22 04:27:41;;;;;;;5.20;4.90;;;22.10;40.50;;;;;;4807224;29;20445;-80
2021/07/22 04:30:08;;;;;;;4.80;4.50;;;22.10;40.50;;;;;;4807002;29;20181;-80
2021/07/22 04:32:34;;;;;;;5.13;4.83;;;22.10;40.50;;;;;;4807240;29;20212;-81
2021/07/22 04:35:01;;;;;;;5.90;5.50;;;22.10;40.50;;;;;;4805449;29;20430;-80
2021/07/22 04:37:27;;;;;;;4.40;4.20;;;22.10;40.50;;;;;;4807136;29;20169;-80
2021/07/22 04:39:52;;;;;;;4.97;4.67;;;22.10;40.50;;;;;;4809167;29;20441;-80
2021/07/22 04:42:18;;;;;;;6.13;5.73;;;22.10;40.60;;;;;;4823810;29;20431;-80
2021/07/22 04:44:44;;;;;;;6.77;6.27;;;22.10;40.50;;;;;;4804656;29;20188;-80
2021/07/22 04:47:09;;;;;;;6.07;5.40;;;22.10;40.40;;;;;;4805608;29;20844;-80
2021/07/22 04:49:35;;;;;;;6.23;5.63;;;22.10;40.40;;;;;;4805597;29;20212;-80
2021/07/22 04:52:03;;;;;;;7.13;6.63;;;22.10;40.30;;;;;;4805905;29;20212;-80
2021/07/22 04:54:28;;;;;;;7.70;7.13;;;22.20;40.40;;;;;;4806737;29;20184;-80
2021/07/22 04:56:54;;;;;;;6.50;5.90;;;22.10;40.30;;;;;;4814050;29;20817;-80
2021/07/22 04:59:19;;;;;;;7.40;6.90;;;22.10;40.30;;;;;;4805955;29;20197;-80
2021/07/22 05:01:45;;;;;;;7.67;6.97;;;22.20;40.50;;;;;;4805332;29;20555;-80
2021/07/22 05:04:17;;;;;;;7.27;6.77;;;22.20;40.50;;;;;;4805697;29;20193;-80
2021/07/22 05:06:43;;;;;;;7.90;7.13;;;22.20;40.50;;;;;;4807902;29;20181;-81
2021/07/22 05:09:09;;;;;;;7.80;7.20;;;22.20;40.50;;;;;;4810357;29;20797;-80
2021/07/22 05:11:35;;;;;;;7.00;6.40;;;22.20;40.50;;;;;;4813642;29;20552;-80
2021/07/22 05:14:00;;;;;;;7.67;6.90;;;22.20;40.50;;;;;;4808853;29;20517;-80
2021/07/22 05:16:26;;;;;;;8.57;7.40;;;22.20;40.50;;;;;;4808593;29;20189;-81
2021/07/22 05:18:52;;;;;;;7.17;6.57;;;22.20;40.60;;;;;;4809822;29;20692;-81
2021/07/22 05:21:19;;;;;;;8.83;6.57;;;22.20;40.60;;;;;;4809527;29;20181;-80
2021/07/22 05:23:44;;;;;;;7.67;7.00;;;22.20;40.60;;;;;;4809723;29;20202;-81
2021/07/22 05:26:10;;;;;;;7.13;6.60;;;22.20;40.50;;;;;;4813659;29;20432;-80
2021/07/22 05:28:40;;;;;;;7.70;6.93;;;22.20;40.50;;;;;;4821184;29;20231;-80
2021/07/22 05:31:07;;;;;;;7.57;7.07;;;22.20;40.50;;;;;;4825637;29;20792;-81
2021/07/22 05:33:33;;;;;;;7.27;6.77;;;22.20;40.50;;;;;;4827361;29;20414;-81
2021/07/22 05:36:07;;;;;;;8.60;7.90;;;22.20;40.50;;;;;;4826132;29;20465;-80
2021/07/22 05:41:19;;;;;;;10.50;9.03;;;22.20;40.50;;;;;;4826983;29;20505;-80
2021/07/22 05:43:45;;;;;;;9.87;9.00;;;22.10;39.20;;;;;;4826997;29;20492;-80
2021/07/22 05:46:10;;;;;;;10.33;9.37;;;22.10;38.90;;;;;;4826873;29;20195;-81
2021/07/22 05:48:36;;;;;;;10.60;9.60;;;22.00;38.50;;;;;;4824862;29;20207;-80
2021/07/22 05:51:02;;;;;;;9.37;8.47;;;22.00;38.60;;;;;;4826214;29;20196;-80
2021/07/22 05:53:28;;;;;;;9.33;8.50;;;22.00;38.50;;;;;;4824823;29;20172;-80
2021/07/22 05:55:59;;;;;;;9.27;8.57;;;22.00;38.50;;;;;;4826071;29;20965;-81
2021/07/22 05:58:27;;;;;;;9.50;8.80;;;22.00;38.50;;;;;;4824597;29;20610;-80
2021/07/22 06:00:53;;;;;;;9.63;8.73;;;21.90;38.10;;;;;;4825894;29;20441;-80
2021/07/22 06:03:18;;;;;;;9.67;8.70;;;21.90;38.00;;;;;;4825288;29;20461;-81
2021/07/22 06:05:44;;;;;;;8.60;8.00;;;21.80;38.00;;;;;;4824385;29;20212;-79
2021/07/22 06:08:10;;;;;;;8.40;7.90;;;21.80;37.90;;;;;;4825600;29;20219;-79
2021/07/22 06:10:36;;;;;;;8.80;8.10;;;21.80;38.20;;;;;;4824504;29;20195;-80
2021/07/22 06:13:02;;;;;;;9.53;8.73;;;21.80;38.00;;;;;;4826921;29;20200;-79
2021/07/22 06:15:28;;;;;;;8.30;7.60;;;21.80;38.00;;;;;;4827229;29;20433;-79
2021/07/22 06:17:54;;;;;;;9.93;8.27;;;21.80;38.00;;;;;;4826971;29;20449;-79
2021/07/22 06:20:19;;;;;;;9.67;8.73;;;21.80;37.80;;;;;;4826759;29;20712;-80
2021/07/22 06:22:45;;;;;;;10.03;9.23;;;21.90;38.00;;;;;;4825954;29;20652;-81
2021/07/22 06:25:14;;;;;;;9.83;8.93;;;21.80;37.80;;;;;;4827343;29;20232;-80
2021/07/22 06:27:41;;;;;;;16.43;9.20;;;21.80;37.80;;;;;;4825597;29;20286;-81
2021/07/22 06:30:08;;;;;;;9.13;8.33;;;21.80;37.80;;;;;;4826258;29;20425;-81
2021/07/22 06:32:34;;;;;;;9.27;8.50;;;21.80;38.10;;;;;;4825292;29;20576;-81
2021/07/22 06:35:00;;;;;;;9.37;8.57;;;21.90;38.00;;;;;;4826747;29;20473;-80
2021/07/22 06:37:26;;;;;;;10.83;9.07;;;21.90;38.10;;;;;;4827362;29;20537;-80
2021/07/22 06:39:52;;;;;;;9.30;8.50;;;21.90;38.00;;;;;;4827790;29;20441;-80
2021/07/22 06:42:17;;;;;;;9.77;8.77;;;21.90;38.70;;;;;;4827667;29;20180;-80
2021/07/22 06:44:43;;;;;;;9.47;8.67;;;21.90;38.00;;;;;;4826326;29;20188;-80
2021/07/22 06:47:09;;;;;;;10.10;9.23;;;21.90;38.10;;;;;;4828069;29;20188;-80
2021/07/22 06:49:34;;;;;;;9.57;8.67;;;21.90;38.10;;;;;;4827144;29;20211;-80
2021/07/22 06:52:00;;;;;;;11.50;9.17;;;21.90;38.10;;;;;;4831254;29;20215;-80
2021/07/22 06:54:26;;;;;;;14.23;8.77;;;21.90;38.00;;;;;;4836259;29;20199;-80
2021/07/22 06:56:51;;;;;;;10.20;8.87;;;21.90;38.10;;;;;;4845414;29;20194;-79
2021/07/22 06:59:17;;;;;;;8.40;7.60;;;21.90;38.20;;;;;;4860022;29;20294;-80
2021/07/22 07:01:43;;;;;;;10.47;9.37;;;21.90;38.10;;;;;;4844461;29;20188;-80
2021/07/22 07:04:08;;;;;;;10.00;9.10;;;21.90;38.40;;;;;;4827810;29;20261;-80
2021/07/22 07:06:35;;;;;;;9.73;8.73;;;21.90;38.00;;;;;;4826944;29;20176;-80
2021/07/22 07:09:03;;;;;;;9.43;8.73;;;21.90;37.90;;;;;;4827209;29;20204;-79
2021/07/22 07:11:29;;;;;;;10.43;9.47;;;21.90;37.90;;;;;;4826408;29;20537;-80
2021/07/22 07:13:54;;;;;;;10.43;9.40;;;21.90;37.80;;;;;;4828358;29;21109;-80
2021/07/22 07:16:20;;;;;;;9.77;8.90;;;22.00;38.20;;;;;;4826218;29;20180;-80
2021/07/22 07:18:45;;;;;;;12.17;9.20;;;22.00;38.30;;;;;;4825968;29;20211;-79
2021/07/22 07:21:11;;;;;;;9.90;9.00;;;22.00;38.30;;;;;;4828673;29;20184;-79
2021/07/22 07:23:37;;;;;;;9.23;8.40;;;22.00;38.00;;;;;;4827248;29;20188;-79
2021/07/22 07:26:02;;;;;;;9.10;8.20;;;22.00;38.20;;;;;;4826960;29;20180;-79
2021/07/22 07:28:28;;;;;;;8.77;8.07;;;22.00;38.20;;;;;;4828285;29;20566;-80
2021/07/22 07:30:54;;;;;;;8.80;8.20;;;22.00;38.20;;;;;;4826958;29;20176;-80
2021/07/22 07:33:21;;;;;;;10.20;9.40;;;22.00;38.30;;;;;;4826232;29;20219;-78
2021/07/22 07:35:47;;;;;;;10.20;9.30;;;22.00;38.40;;;;;;4827658;29;20187;-79
2021/07/22 07:38:12;;;;;;;11.10;10.10;;;22.00;37.90;;;;;;4827762;29;20470;-79
2021/07/22 07:40:38;;;;;;;10.03;9.23;;;21.90;37.80;;;;;;4827449;29;20414;-79
2021/07/22 07:43:04;;;;;;;11.37;10.40;;;22.00;38.00;;;;;;4827248;29;20179;-79
2021/07/22 07:45:30;;;;;;;11.20;9.60;;;22.00;38.20;;;;;;4826489;29;20187;-80
2021/07/22 07:47:55;;;;;;;11.80;9.57;;;22.00;38.00;;;;;;4825460;29;20257;-79
2021/07/22 07:50:22;;;;;;;12.50;10.77;;;22.00;38.30;;;;;;4826861;29;20202;-79
2021/07/22 07:52:48;;;;;;;10.00;9.20;;;22.00;38.00;;;;;;4826521;29;20218;-80
2021/07/22 07:55:14;;;;;;;10.97;10.07;;;22.00;38.10;;;;;;4826192;29;20421;-78
2021/07/22 07:57:40;;;;;;;15.67;10.87;;;22.10;38.00;;;;;;4827351;29;20824;-80
2021/07/22 08:00:08;;;;;;;11.67;10.70;;;22.10;37.90;;;;;;4827472;29;20425;-79
2021/07/22 08:02:33;;;;;;;11.13;9.90;;;22.10;38.00;;;;;;4826053;29;20440;-79
2021/07/22 08:05:02;;;;;;;10.83;9.93;;;22.10;38.10;;;;;;4825893;29;20445;-79
2021/07/22 08:11:05;;;;;;;10.47;9.60;;;22.10;38.90;;;;;;4823307;29;20433;-79
2021/07/22 08:13:30;;;;;;;10.30;9.40;;;22.10;38.20;;;;;;4814820;29;20438;-79
2021/07/22 08:15:58;;;;;;;11.40;10.23;;;22.20;38.20;;;;;;4808147;29;20986;-79
2021/07/22 08:18:24;;;;;;;10.37;9.50;;;22.20;38.30;;;;;;4806806;29;20265;-79
2021/07/22 08:21:01;;;;;;;11.03;10.13;;;22.20;38.40;;;;;;4807742;29;20457;-78
2021/07/22 08:23:27;;;;;;;11.77;10.87;;;22.20;38.60;;;;;;4808725;29;20192;-80
2021/07/22 08:25:53;;;;;;;11.00;10.20;;;22.20;38.50;;;;;;4818042;29;20469;-80
2021/07/22 08:28:18;;;;;;;10.20;9.30;;;22.20;38.50;;;;;;4825051;29;20212;-79
2021/07/22 08:30:44;;;;;;;9.20;8.60;;;22.20;38.30;;;;;;4825417;29;20213;-80
2021/07/22 08:33:10;;;;;;;10.10;9.30;;;22.30;38.50;;;;;;4830781;29;20226;-80
2021/07/22 08:35:36;;;;;;;10.60;9.70;;;22.20;38.50;;;;;;4844591;29;20424;-80
2021/07/22 08:38:01;;;;;;;11.57;10.53;;;22.30;38.60;;;;;;4844350;29;20203;-80
2021/07/22 08:40:27;;;;;;;12.17;10.83;;;22.30;38.60;;;;;;4841996;29;20592;-80
2021/07/22 08:42:59;;;;;;;11.17;10.37;;;22.30;38.60;;;;;;4845428;29;20187;-79
2021/07/22 08:45:25;;;;;;;10.70;9.77;;;22.30;38.30;;;;;;4846858;29;20194;-79
2021/07/22 08:47:51;;;;;;;11.23;10.33;;;22.30;38.30;;;;;;4861329;29;20444;-79
2021/07/22 08:50:18;;;;;;;12.10;11.20;;;22.30;38.30;;;;;;4846406;29;20538;-79
2021/07/22 08:52:43;;;;;;;11.60;10.43;;;22.30;38.40;;;;;;4846501;29;20480;-79
2021/07/22 08:55:09;;;;;;;10.33;9.43;;;22.30;38.50;;;;;;4845633;29;20436;-78
2021/07/22 08:57:37;;;;;;;17.10;10.30;;;22.30;38.50;;;;;;4861733;29;20233;-80
2021/07/22 09:00:08;;;;;;;11.60;10.40;;;22.30;37.50;;;;;;4846105;29;20439;-80
2021/07/22 09:02:34;;;;;;;12.40;11.10;;;22.30;38.20;;;;;;4846330;29;20456;-80
2021/07/22 09:05:01;;;;;;;12.00;11.10;;;22.40;37.40;;;;;;4845670;29;20459;-79
2021/07/22 09:07:28;;;;;;;10.60;9.90;;;22.40;37.50;;;;;;4846080;29;20931;-79
2021/07/22 09:10:06;;;;;;;10.07;9.17;;;22.40;37.70;;;;;;4847087;29;20515;-79
2021/07/22 09:12:39;;;;;;;10.43;9.63;;;22.40;37.70;;;;;;4845708;29;20499;-79
2021/07/22 09:15:06;;;;;;;10.70;9.90;;;22.40;37.90;;;;;;4845174;29;20512;-79
2021/07/22 09:17:35;;;;;;;11.13;10.13;;;22.40;37.20;;;;;;4845920;29;20473;-79
2021/07/22 09:20:01;;;;;;;11.20;10.30;;;22.40;36.50;;;;;;4846248;29;20775;-80
2021/07/22 09:22:40;;;;;;;10.23;9.53;;;22.40;36.00;;;;;;4846335;29;20565;-79
2021/07/22 09:25:07;;;;;;;10.17;9.47;;;22.40;36.70;;;;;;4843918;29;20654;-79
2021/07/22 09:27:42;;;;;;;10.63;9.87;;;22.40;36.90;;;;;;4843704;29;20783;-79
2021/07/22 09:30:18;;;;;;;11.30;10.50;;;22.40;36.70;;;;;;4843132;29;20814;-79
2021/07/22 09:32:49;;;;;;;10.73;9.73;;;22.40;36.90;;;;;;4843726;29;20471;-79
2021/07/22 09:35:21;;;;;;;11.33;10.33;;;22.40;36.80;;;;;;4843643;29;20504;-79
2021/07/22 09:37:53;;;;;;;10.30;9.40;;;22.40;37.10;;;;;;4844585;29;20440;-79
2021/07/22 09:40:32;;;;;;;10.77;9.87;;;22.50;36.50;;;;;;4842572;29;20451;-79
2021/07/22 09:42:58;;;;;;;10.80;10.03;;;22.50;36.90;;;;;;4844728;29;20428;-79
2021/07/22 09:45:26;;;;;;;11.23;10.43;;;22.50;36.70;;;;;;4846530;29;20428;-78
2021/07/22 09:47:56;;;;;;;10.30;9.50;;;22.50;37.10;;;;;;4845646;29;20468;-79
2021/07/22 09:51:33;;;;;;;11.33;10.43;;;22.50;37.10;;;;;;4846470;29;20432;-80
2021/07/22 09:54:37;;;;;;;10.43;9.57;;;22.50;36.60;;;;;;4821701;29;20444;-80
2021/07/22 10:03:53;;;;;;;11.27;9.90;;;22.60;35.70;;;;;;4837988;29;20429;-80
2021/07/22 10:06:28;;;;;;;10.67;9.73;;;22.50;35.80;;;;;;4836918;29;20508;-82
2021/07/22 10:09:23;;;;;;;10.33;9.50;;;22.60;35.80;;;;;;4832199;29;20472;-81
2021/07/22 10:12:03;;;;;;;10.60;9.63;;;22.60;36.40;;;;;;4825539;29;20834;-81
2021/07/22 10:15:01;;;;;;;10.60;9.80;;;22.60;36.60;;;;;;4826893;29;20510;-81
2021/07/22 10:17:37;;;;;;;10.57;9.63;;;22.60;35.40;;;;;;4827785;29;20430;-80
2021/07/22 10:20:24;;;;;;;11.53;10.63;;;22.60;34.40;;;;;;4828171;29;20413;-79
2021/07/22 10:23:16;;;;;;;11.83;10.93;;;22.60;35.10;;;;;;4827986;29;20429;-79
2021/07/22 10:25:42;;;;;;;10.97;10.00;;;22.60;35.40;;;;;;4827163;29;20429;-78
2021/07/22 10:28:29;;;;;;;11.10;10.30;;;22.60;34.90;;;;;;4827808;29;20445;-79
2021/07/22 10:30:58;;;;;;;10.97;10.10;;;22.70;35.50;;;;;;4813397;29;20437;-79
2021/07/22 10:33:48;;;;;;;11.33;10.40;;;22.70;36.00;;;;;;4827066;29;20468;-82
2021/07/22 10:36:20;;;;;;;10.50;9.67;;;22.70;34.60;;;;;;4822253;29;20433;-81
2021/07/22 10:38:52;;;;;;;11.17;9.80;;;22.70;35.00;;;;;;4826203;29;20449;-81
2021/07/22 10:41:51;;;;;;;10.30;9.50;;;22.70;35.50;;;;;;4813134;29;20431;-80
2021/07/22 10:45:11;;;;;;;10.57;9.77;;;22.70;35.70;;;;;;4828718;29;20447;-81
2021/07/22 10:49:13;;;;;;;9.33;8.63;;;22.70;35.80;;;;;;4830064;29;20829;-81
2021/07/22 10:51:42;;;;;;;10.30;9.40;;;22.80;35.70;;;;;;4830102;29;20471;-81
2021/07/22 10:54:54;;;;;;;10.93;10.03;;;22.80;35.70;;;;;;4830700;29;20433;-81
2021/07/22 10:57:37;;;;;;;11.40;10.50;;;22.80;35.50;;;;;;4811168;29;20430;-79
2021/07/22 11:00:09;;;;;;;11.83;10.87;;;22.80;35.20;;;;;;4810615;29;20430;-81
2021/07/22 11:03:13;;;;;;;10.57;9.70;;;22.80;35.70;;;;;;4812650;29;20432;-82
2021/07/22 11:06:04;;;;;;;11.00;10.20;;;22.80;36.00;;;;;;4807870;29;20449;-81
2021/07/22 11:08:42;;;;;;;9.53;8.73;;;22.80;35.00;;;;;;4812386;29;20480;-80
2021/07/22 11:11:13;;;;;;;10.57;9.73;;;22.90;35.40;;;;;;4812765;29;20426;-81
2021/07/22 11:13:48;;;;;;;10.50;9.50;;;22.90;35.60;;;;;;4811287;29;20506;-81
2021/07/22 11:16:33;;;;;;;11.07;10.27;;;22.80;35.00;;;;;;4812706;29;20418;-80
2021/07/22 11:19:13;;;;;;;10.87;10.07;;;22.90;34.80;;;;;;4810481;29;20461;-79
2021/07/22 11:21:50;;;;;;;10.87;10.00;;;22.90;34.80;;;;;;4807258;29;20430;-79
2021/07/22 11:24:25;;;;;;;10.47;9.67;;;22.90;35.10;;;;;;4809990;29;20433;-79
2021/07/22 11:26:54;;;;;;;10.57;9.63;;;22.90;35.30;;;;;;4811095;29;20464;-79
2021/07/22 11:29:35;;;;;;;11.27;10.27;;;22.90;35.10;;;;;;4810744;29;20454;-79
2021/07/22 11:32:12;;;;;;;10.37;9.47;;;22.90;35.00;;;;;;4808138;29;20498;-80
2021/07/22 11:35:13;;;;;;;11.10;9.93;;;22.90;33.80;;;;;;4808671;29;20448;-80
2021/07/22 11:37:48;;;;;;;12.10;10.50;;;23.00;33.90;;;;;;4791347;29;20430;-80
2021/07/22 11:41:09;;;;;;;12.03;11.07;;;23.00;33.70;;;;;;4809421;29;20422;-80
2021/07/22 11:44:19;;;;;;;11.20;10.40;;;22.90;34.00;;;;;;4807277;29;20465;-80
2021/07/22 11:46:53;;;;;;;10.47;9.63;;;22.90;34.10;;;;;;4809747;29;20480;-80
2021/07/22 11:49:19;;;;;;;11.70;10.60;;;22.90;34.60;;;;;;4825147;29;20472;-80
2021/07/22 11:51:50;;;;;;;11.43;10.50;;;22.90;35.10;;;;;;4824315;29;20453;-79
2021/07/22 11:54:20;;;;;;;14.43;10.57;;;22.90;34.70;;;;;;4825609;29;20422;-80
2021/07/22 11:56:50;;;;;;;11.37;10.30;;;23.00;35.00;;;;;;4810190;29;20434;-78
2021/07/22 11:59:25;;;;;;;12.17;11.00;;;23.00;35.10;;;;;;4824203;29;20588;-77
2021/07/22 12:02:08;;;;;;;11.90;10.40;;;23.00;34.50;;;;;;4809136;29;20493;-77
2021/07/22 12:04:36;;;;;;;11.43;10.43;;;23.00;35.20;;;;;;4822771;29;20445;-77
2021/07/22 12:07:12;;;;;;;13.10;11.80;;;23.00;35.10;;;;;;4821258;29;20527;-78
2021/07/22 12:10:00;;;;;;;11.37;10.30;;;23.00;35.10;;;;;;4824012;29;20547;-78
2021/07/22 12:13:45;;;;;;;12.97;11.60;;;23.00;35.70;;;;;;4820268;29;20477;-79
2021/07/22 12:17:13;;;;;;;11.53;10.43;;;23.00;35.80;;;;;;4787169;29;20422;-79
2021/07/22 12:20:38;;;;;;;;;;;;;;;;;;;;;
2021/07/22 12:23:47;;;;;;;12.37;11.37;;;23.10;34.10;;;;;;4754569;30;20421;-78
2021/07/22 12:26:18;;;;;;;12.43;11.27;;;23.00;34.20;;;;;;4743132;30;20437;-79
2021/07/22 12:33:11;;;;;;;13.50;12.30;;;23.00;34.70;;;;;;4749524;30;20483;-79
2021/07/22 12:39:06;;;;;;;11.23;10.33;;;23.00;34.70;;;;;;4807803;29;20480;-78
2021/07/22 12:41:33;;;;;;;15.60;11.60;;;23.00;35.70;;;;;;4791847;29;20430;-78
2021/07/22 12:44:03;;;;;;;13.70;11.33;;;23.00;35.20;;;;;;4806035;29;20426;-78
2021/07/22 12:46:38;;;;;;;14.67;13.30;;;23.00;35.40;;;;;;4827213;29;20425;-78
2021/07/22 12:49:10;;;;;;;12.87;11.20;;;23.00;35.60;;;;;;4825923;29;20866;-78
2021/07/22 12:51:37;;;;;;;12.50;11.40;;;23.00;36.10;;;;;;4826908;29;20464;-78
2021/07/22 12:54:16;;;;;;;12.90;11.70;;;23.00;36.10;;;;;;4824512;29;20445;-79
2021/07/22 12:56:43;;;;;;;11.83;10.73;;;23.00;35.70;;;;;;4808066;29;20481;-78
2021/07/22 12:59:10;;;;;;;12.90;11.80;;;23.00;35.60;;;;;;4807519;29;20533;-78
2021/07/22 13:01:39;;;;;;;13.17;12.03;;;23.00;35.90;;;;;;4808076;29;20449;-78
2021/07/22 13:04:05;;;;;;;11.50;10.60;;;23.00;35.60;;;;;;4807688;29;20801;-78
2021/07/22 13:06:31;;;;;;;12.80;11.63;;;23.00;35.40;;;;;;4807546;29;20584;-78
2021/07/22 13:08:56;;;;;;;12.60;11.50;;;23.00;35.40;;;;;;4807839;29;20272;-78
2021/07/22 13:11:24;;;;;;;12.73;11.63;;;23.00;35.50;;;;;;4809493;29;20533;-78
2021/07/22 13:13:49;;;;;;;12.33;11.13;;;23.00;35.10;;;;;;4808658;29;20196;-78
2021/07/22 13:16:17;;;;;;;12.10;11.00;;;23.00;35.20;;;;;;4809081;29;20479;-78
2021/07/22 13:18:43;;;;;;;12.23;11.23;;;23.00;35.00;;;;;;4810532;29;20203;-79
2021/07/22 13:21:11;;;;;;;11.17;9.93;;;23.00;35.20;;;;;;4811160;29;20441;-78
2021/07/22 13:23:37;;;;;;;12.10;11.10;;;23.00;35.20;;;;;;4810002;29;20208;-79
2021/07/22 13:26:04;;;;;;;12.00;11.00;;;23.00;35.30;;;;;;4810157;29;20422;-80
2021/07/22 13:28:30;;;;;;;12.30;11.40;;;23.10;34.90;;;;;;4810977;29;20452;-78
2021/07/22 13:30:56;;;;;;;12.43;11.43;;;23.00;35.20;;;;;;4809337;29;20470;-79
2021/07/22 13:33:22;;;;;;;12.00;11.00;;;23.00;36.00;;;;;;4808700;29;20204;-79
2021/07/22 13:35:48;;;;;;;11.63;10.60;;;23.00;35.30;;;;;;4809956;29;20181;-78
2021/07/22 13:38:14;;;;;;;12.03;11.07;;;23.00;35.30;;;;;;4827313;29;20444;-78
2021/07/22 13:40:41;;;;;;;11.87;10.87;;;23.00;35.30;;;;;;4827083;29;20425;-78
2021/07/22 13:43:06;;;;;;;11.50;10.40;;;23.00;35.10;;;;;;4827703;29;20413;-79
2021/07/22 13:45:33;;;;;;;11.43;10.53;;;23.00;35.20;;;;;;4823868;29;20418;-78
2021/07/22 13:48:00;;;;;;;11.43;10.27;;;23.00;35.30;;;;;;4808059;29;20215;-78
2021/07/22 13:50:27;;;;;;;13.33;12.13;;;23.10;34.60;;;;;;4821799;29;20445;-78
2021/07/22 13:52:53;;;;;;;11.93;10.87;;;23.10;35.00;;;;;;4826549;29;20814;-79
2021/07/22 13:55:21;;;;;;;11.07;10.17;;;23.10;34.60;;;;;;4825942;29;20482;-79
2021/07/22 13:57:56;;;;;;;11.87;10.90;;;23.10;34.50;;;;;;4826378;29;20841;-79
2021/07/22 14:00:22;;;;;;;10.57;9.67;;;23.10;33.70;;;;;;4827231;29;20421;-79
2021/07/22 14:02:47;;;;;;;10.90;10.00;;;23.10;34.10;;;;;;4827415;29;20440;-79
2021/07/22 14:05:13;;;;;;;11.53;10.60;;;23.10;34.50;;;;;;4827440;29;20180;-80
2021/07/22 14:07:38;;;;;;;10.20;9.50;;;23.10;35.80;;;;;;4828476;29;20237;-79
2021/07/22 14:10:04;;;;;;;11.03;10.03;;;23.10;34.80;;;;;;4827612;29;20240;-80
2021/07/22 14:12:30;;;;;;;11.80;10.80;;;23.10;34.00;;;;;;4828225;29;20195;-80
2021/07/22 14:14:55;;;;;;;12.10;11.00;;;23.10;34.00;;;;;;4826940;29;20537;-80
2021/07/22 14:18:33;;;;;;;16.10;10.93;;;23.10;34.30;;;;;;4827527;29;20700;-80
2021/07/22 14:21:00;;;;;;;11.27;10.37;;;23.10;33.90;;;;;;4807730;29;20195;-79
2021/07/22 14:23:26;;;;;;;10.70;9.70;;;23.20;33.30;;;;;;4793178;29;20486;-79
2021/07/22 14:25:51;;;;;;;11.30;10.17;;;23.20;33.40;;;;;;4815776;29;20453;-79